KMCJ

Houston

Houston, Texas, USA
METAR KMCJ 201935Z AUTO 20010G20KT 120V230 10SM FEW045 FEW065 FEW075 36/20 A2997 RMK A01
Observed Flight Rules
Aug-20 @ 19:35 UTC (55 minutes ago) Visual Flight Rules
Wind Visibility Clouds
200° at 10 knots
 Gusting to 20 knots
10 miles
  • Few at 4,500' AGL
  • Few at 6,500' AGL
  • Few at 7,500' AGL
Temperatures Readings
Current 36°C / 97°F
Dewpoint 20°C / 68°F
Humidity 39%
Altimeter 29.97" Hg
Pressure 1015 hPa
Elevation 69
METAR KMCJ 201935Z AUTO 20010G20KT 120V230 10SM FEW045 FEW065 FEW075 36/20 A2997 RMK A01
Observed Flight Rules
Aug-20 @ 19:35 UTC
(55 minutes ago)
VFR
Wind Visibility
200° at 10 knots
 Gusting to 20 knots
10 miles
Clouds
  • Few at 4,500' AGL
  • Few at 6,500' AGL
  • Few at 7,500' AGL
Temperature Dewpoint
36°C / 97°F 20°C / 68°F
Humidity Altimeter Pressure
39% 29.97" Hg 1015 hPa